sensor_id;sensor_type;location;lat;lon;timestamp;pressure;altitude;pressure_sealevel;temperature;humidity
15272;BME280;7737;51.578;7.268;2023-04-25T00:02:15;100425.78;;;7.38;100.00
15272;BME280;7737;51.578;7.268;2023-04-25T00:04:42;100426.81;;;7.34;100.00
15272;BME280;7737;51.578;7.268;2023-04-25T00:07:08;100420.53;;;7.36;100.00
15272;BME280;7737;51.578;7.268;2023-04-25T00:09:35;100422.06;;;7.42;100.00
15272;BME280;7737;51.578;7.268;2023-04-25T00:12:04;100424.84;;;7.39;100.00
15272;BME280;7737;51.578;7.268;2023-04-25T00:14:30;100421.53;;;7.34;100.00
15272;BME280;7737;51.578;7.268;2023-04-25T00:16:59;100428.31;;;7.41;100.00
15272;BME280;7737;51.578;7.268;2023-04-25T00:19:26;100435.41;;;7.39;100.00
15272;BME280;7737;51.578;7.268;2023-04-25T00:21:53;100430.00;;;7.42;100.00
15272;BME280;7737;51.578;7.268;2023-04-25T00:24:20;100431.63;;;7.46;100.00
15272;BME280;7737;51.578;7.268;2023-04-25T00:26:47;100427.38;;;7.42;100.00
15272;BME280;7737;51.578;7.268;2023-04-25T00:29:15;100425.72;;;7.40;100.00
15272;BME280;7737;51.578;7.268;2023-04-25T00:31:41;100436.28;;;7.40;100.00
15272;BME280;7737;51.578;7.268;2023-04-25T00:34:08;100424.97;;;7.36;100.00
15272;BME280;7737;51.578;7.268;2023-04-25T00:36:34;100431.75;;;7.43;100.00
15272;BME280;7737;51.578;7.268;2023-04-25T00:39:01;100426.56;;;7.40;100.00
15272;BME280;7737;51.578;7.268;2023-04-25T00:41:29;100428.16;;;7.44;100.00
15272;BME280;7737;51.578;7.268;2023-04-25T00:43:56;100422.03;;;7.44;100.00
15272;BME280;7737;51.578;7.268;2023-04-25T00:46:25;100420.09;;;7.47;100.00
15272;BME280;7737;51.578;7.268;2023-04-25T00:48:52;100420.63;;;7.55;100.00
15272;BME280;7737;51.578;7.268;2023-04-25T00:51:20;100426.88;;;7.54;100.00
15272;BME280;7737;51.578;7.268;2023-04-25T00:53:48;100426.38;;;7.45;100.00
15272;BME280;7737;51.578;7.268;2023-04-25T00:56:16;100425.94;;;7.55;100.00
15272;BME280;7737;51.578;7.268;2023-04-25T00:58:42;100430.94;;;7.41;100.00
15272;BME280;7737;51.578;7.268;2023-04-25T01:01:10;100424.59;;;7.45;100.00
15272;BME280;7737;51.578;7.268;2023-04-25T01:03:39;100428.16;;;7.44;100.00
15272;BME280;7737;51.578;7.268;2023-04-25T01:06:08;100427.25;;;7.45;100.00
15272;BME280;7737;51.578;7.268;2023-04-25T01:08:36;100433.19;;;7.50;100.00
15272;BME280;7737;51.578;7.268;2023-04-25T01:11:03;100432.88;;;7.58;100.00
15272;BME280;7737;51.578;7.268;2023-04-25T01:13:30;100431.09;;;7.58;100.00
15272;BME280;7737;51.578;7.268;2023-04-25T01:15:57;100436.72;;;7.51;100.00
15272;BME280;7737;51.578;7.268;2023-04-25T01:18:24;100440.94;;;7.55;100.00
15272;BME280;7737;51.578;7.268;2023-04-25T01:20:52;100432.69;;;7.62;100.00
15272;BME280;7737;51.578;7.268;2023-04-25T01:23:22;100431.22;;;7.55;100.00
15272;BME280;7737;51.578;7.268;2023-04-25T01:25:49;100436.63;;;7.52;100.00
15272;BME280;7737;51.578;7.268;2023-04-25T01:28:16;100436.16;;;7.43;100.00
15272;BME280;7737;51.578;7.268;2023-04-25T01:30:42;100435.06;;;7.48;100.00
15272;BME280;7737;51.578;7.268;2023-04-25T01:33:09;100443.09;;;7.45;100.00
15272;BME280;7737;51.578;7.268;2023-04-25T01:35:36;100441.53;;;7.41;100.00
15272;BME280;7737;51.578;7.268;2023-04-25T01:38:02;100451.34;;;7.59;100.00
15272;BME280;7737;51.578;7.268;2023-04-25T01:40:31;100439.81;;;7.60;100.00
15272;BME280;7737;51.578;7.268;2023-04-25T01:42:59;100445.63;;;7.48;100.00
15272;BME280;7737;51.578;7.268;2023-04-25T01:45:26;100443.78;;;7.50;100.00
15272;BME280;7737;51.578;7.268;2023-04-25T01:47:52;100443.09;;;7.45;100.00
15272;BME280;7737;51.578;7.268;2023-04-25T01:50:19;100449.19;;;7.47;100.00
15272;BME280;7737;51.578;7.268;2023-04-25T01:52:46;100451.81;;;7.47;100.00
15272;BME280;7737;51.578;7.268;2023-04-25T01:55:12;100453.59;;;7.47;100.00
15272;BME280;7737;51.578;7.268;2023-04-25T01:57:40;100456.88;;;7.53;100.00
15272;BME280;7737;51.578;7.268;2023-04-25T02:00:07;100461.50;;;7.48;100.00
15272;BME280;7737;51.578;7.268;2023-04-25T02:02:35;100466.78;;;7.48;100.00
15272;BME280;7737;51.578;7.268;2023-04-25T02:05:02;100458.97;;;7.45;100.00
15272;BME280;7737;51.578;7.268;2023-04-25T02:07:29;100462.38;;;7.49;100.00
15272;BME280;7737;51.578;7.268;2023-04-25T02:09:55;100470.34;;;7.47;100.00
15272;BME280;7737;51.578;7.268;2023-04-25T02:12:22;100472.31;;;7.42;100.00
15272;BME280;7737;51.578;7.268;2023-04-25T02:14:50;100483.88;;;7.40;100.00
15272;BME280;7737;51.578;7.268;2023-04-25T02:17:16;100478.41;;;7.44;100.00
15272;BME280;7737;51.578;7.268;2023-04-25T02:19:43;100482.03;;;7.42;100.00
15272;BME280;7737;51.578;7.268;2023-04-25T02:22:10;100484.81;;;7.39;100.00
15272;BME280;7737;51.578;7.268;2023-04-25T02:24:36;100482.97;;;7.41;100.00
15272;BME280;7737;51.578;7.268;2023-04-25T02:27:03;100482.31;;;7.35;100.00
15272;BME280;7737;51.578;7.268;2023-04-25T02:29:30;100491.06;;;7.36;100.00
15272;BME280;7737;51.578;7.268;2023-04-25T02:31:57;100480.25;;;7.42;100.00
15272;BME280;7737;51.578;7.268;2023-04-25T02:34:24;100486.75;;;7.33;100.00
15272;BME280;7737;51.578;7.268;2023-04-25T02:36:51;100497.22;;;7.36;100.00
15272;BME280;7737;51.578;7.268;2023-04-25T02:39:17;100492.03;;;7.33;100.00
15272;BME280;7737;51.578;7.268;2023-04-25T02:41:44;100491.22;;;7.33;100.00
15272;BME280;7737;51.578;7.268;2023-04-25T02:44:10;100493.72;;;7.36;100.00
15272;BME280;7737;51.578;7.268;2023-04-25T02:46:37;100496.22;;;7.39;100.00
15272;BME280;7737;51.578;7.268;2023-04-25T02:49:05;100492.75;;;7.39;100.00
15272;BME280;7737;51.578;7.268;2023-04-25T02:51:32;100496.50;;;7.33;100.00
15272;BME280;7737;51.578;7.268;2023-04-25T02:53:58;100502.34;;;7.41;100.00
15272;BME280;7737;51.578;7.268;2023-04-25T02:56:25;100497.78;;;7.45;100.00
15272;BME280;7737;51.578;7.268;2023-04-25T02:58:52;100500.72;;;7.37;100.00
15272;BME280;7737;51.578;7.268;2023-04-25T03:01:18;100503.50;;;7.34;100.00
15272;BME280;7737;51.578;7.268;2023-04-25T03:03:45;100502.47;;;7.38;100.00
15272;BME280;7737;51.578;7.268;2023-04-25T03:06:13;100497.34;;;7.33;100.00
15272;BME280;7737;51.578;7.268;2023-04-25T03:08:40;100506.09;;;7.35;100.00
15272;BME280;7737;51.578;7.268;2023-04-25T03:11:06;100496.66;;;7.50;100.00
15272;BME280;7737;51.578;7.268;2023-04-25T03:13:33;100497.41;;;7.32;100.00
15272;BME280;7737;51.578;7.268;2023-04-25T03:15:59;100496.31;;;7.38;100.00
15272;BME280;7737;51.578;7.268;2023-04-25T03:18:26;100494.34;;;7.43;100.00
15272;BME280;7737;51.578;7.268;2023-04-25T03:20:52;100507.31;;;7.27;100.00
15272;BME280;7737;51.578;7.268;2023-04-25T03:23:20;100507.91;;;7.33;100.00
15272;BME280;7737;51.578;7.268;2023-04-25T03:25:47;100500.72;;;7.37;100.00
15272;BME280;7737;51.578;7.268;2023-04-25T03:28:14;100499.38;;;7.27;100.00
15272;BME280;7737;51.578;7.268;2023-04-25T03:30:41;100502.19;;;7.44;100.00
15272;BME280;7737;51.578;7.268;2023-04-25T03:33:07;100512.94;;;7.41;100.00
15272;BME280;7737;51.578;7.268;2023-04-25T03:35:34;100512.94;;;7.41;100.00
15272;BME280;7737;51.578;7.268;2023-04-25T03:38:00;100504.56;;;7.30;100.00
15272;BME280;7737;51.578;7.268;2023-04-25T03:40:28;100516.34;;;7.21;100.00
15272;BME280;7737;51.578;7.268;2023-04-25T03:42:54;100520.75;;;7.21;100.00
15272;BME280;7737;51.578;7.268;2023-04-25T03:45:21;100528.00;;;7.16;100.00
15272;BME280;7737;51.578;7.268;2023-04-25T03:47:48;100545.94;;;7.08;100.00
15272;BME280;7737;51.578;7.268;2023-04-25T03:50:15;100551.53;;;6.77;100.00
15272;BME280;7737;51.578;7.268;2023-04-25T03:52:42;100552.09;;;6.37;100.00
15272;BME280;7737;51.578;7.268;2023-04-25T03:55:09;100558.44;;;6.32;100.00
15272;BME280;7737;51.578;7.268;2023-04-25T03:57:37;100562.31;;;6.22;100.00
15272;BME280;7737;51.578;7.268;2023-04-25T04:00:04;100558.88;;;6.44;100.00
15272;BME280;7737;51.578;7.268;2023-04-25T04:02:31;100551.44;;;6.55;100.00
15272;BME280;7737;51.578;7.268;2023-04-25T04:05:00;100557.41;;;6.60;100.00
15272;BME280;7737;51.578;7.268;2023-04-25T04:07:26;100545.69;;;6.67;100.00
15272;BME280;7737;51.578;7.268;2023-04-25T04:09:53;100551.91;;;6.66;100.00
15272;BME280;7737;51.578;7.268;2023-04-25T04:12:19;100555.56;;;6.62;100.00
15272;BME280;7737;51.578;7.268;2023-04-25T04:14:47;100556.72;;;6.55;100.00
15272;BME280;7737;51.578;7.268;2023-04-25T04:17:14;100548.56;;;6.61;100.00
15272;BME280;7737;51.578;7.268;2023-04-25T04:19:41;100542.47;;;6.59;100.00
15272;BME280;7737;51.578;7.268;2023-04-25T04:22:07;100554.06;;;6.55;100.00
15272;BME280;7737;51.578;7.268;2023-04-25T04:24:34;100558.31;;;6.59;100.00
15272;BME280;7737;51.578;7.268;2023-04-25T04:27:00;100559.25;;;6.58;100.00
15272;BME280;7737;51.578;7.268;2023-04-25T04:29:27;100559.19;;;6.60;100.00
15272;BME280;7737;51.578;7.268;2023-04-25T04:31:55;100560.69;;;6.67;100.00
15272;BME280;7737;51.578;7.268;2023-04-25T04:34:21;100565.13;;;6.66;100.00
15272;BME280;7737;51.578;7.268;2023-04-25T04:36:50;100568.56;;;6.68;100.00
15272;BME280;7737;51.578;7.268;2023-04-25T04:39:16;100571.47;;;6.61;100.00
15272;BME280;7737;51.578;7.268;2023-04-25T04:41:43;100571.03;;;6.73;100.00
15272;BME280;7737;51.578;7.268;2023-04-25T04:44:09;100573.47;;;6.54;100.00
15272;BME280;7737;51.578;7.268;2023-04-25T04:46:36;100573.47;;;6.54;100.00
15272;BME280;7737;51.578;7.268;2023-04-25T04:49:08;100580.41;;;6.57;100.00
15272;BME280;7737;51.578;7.268;2023-04-25T04:51:35;100585.94;;;6.51;100.00
15272;BME280;7737;51.578;7.268;2023-04-25T04:54:02;100593.69;;;6.55;100.00
15272;BME280;7737;51.578;7.268;2023-04-25T04:56:29;100597.13;;;6.57;100.00
15272;BME280;7737;51.578;7.268;2023-04-25T04:58:57;100592.38;;;6.42;100.00
15272;BME280;7737;51.578;7.268;2023-04-25T05:01:24;100597.97;;;6.33;100.00
15272;BME280;7737;51.578;7.268;2023-04-25T05:03:51;100602.59;;;6.51;100.00
15272;BME280;7737;51.578;7.268;2023-04-25T05:06:19;100607.72;;;6.31;100.00
15272;BME280;7737;51.578;7.268;2023-04-25T05:08:45;100603.47;;;6.52;100.00
15272;BME280;7737;51.578;7.268;2023-04-25T05:11:12;100604.94;;;6.60;100.00
15272;BME280;7737;51.578;7.268;2023-04-25T05:13:39;100605.75;;;6.62;100.00
15272;BME280;7737;51.578;7.268;2023-04-25T05:16:06;100604.38;;;6.75;100.00
15272;BME280;7737;51.578;7.268;2023-04-25T05:18:32;100607.47;;;6.88;100.00
15272;BME280;7737;51.578;7.268;2023-04-25T05:20:59;100607.09;;;6.99;100.00
15272;BME280;7737;51.578;7.268;2023-04-25T05:23:27;100615.22;;;6.93;100.00
15272;BME280;7737;51.578;7.268;2023-04-25T05:25:55;100605.84;;;6.84;100.00
15272;BME280;7737;51.578;7.268;2023-04-25T05:28:22;100621.19;;;6.74;100.00
15272;BME280;7737;51.578;7.268;2023-04-25T05:30:49;100624.72;;;6.73;100.00
15272;BME280;7737;51.578;7.268;2023-04-25T05:33:15;100635.88;;;6.82;100.00
15272;BME280;7737;51.578;7.268;2023-04-25T05:35:42;100633.44;;;6.75;100.00
15272;BME280;7737;51.578;7.268;2023-04-25T05:38:09;100630.28;;;6.91;100.00
15272;BME280;7737;51.578;7.268;2023-04-25T05:40:37;100637.34;;;6.90;100.00
15272;BME280;7737;51.578;7.268;2023-04-25T05:43:03;100634.09;;;7.07;100.00
15272;BME280;7737;51.578;7.268;2023-04-25T05:45:30;100643.34;;;6.94;100.00
15272;BME280;7737;51.578;7.268;2023-04-25T05:47:56;100647.88;;;7.15;100.00
15272;BME280;7737;51.578;7.268;2023-04-25T05:50:23;100644.31;;;7.16;100.00
15272;BME280;7737;51.578;7.268;2023-04-25T05:52:50;100648.41;;;7.24;100.00
15272;BME280;7737;51.578;7.268;2023-04-25T05:55:17;100643.81;;;7.29;100.00
15272;BME280;7737;51.578;7.268;2023-04-25T05:57:45;100649.28;;;7.25;100.00
15272;BME280;7737;51.578;7.268;2023-04-25T06:00:12;100651.91;;;7.48;100.00
15272;BME280;7737;51.578;7.268;2023-04-25T06:02:41;100657.31;;;7.45;100.00
15272;BME280;7737;51.578;7.268;2023-04-25T06:05:08;100662.69;;;7.44;100.00
15272;BME280;7737;51.578;7.268;2023-04-25T06:07:35;100659.84;;;7.48;100.00
15272;BME280;7737;51.578;7.268;2023-04-25T06:10:02;100669.53;;;7.49;100.00
15272;BME280;7737;51.578;7.268;2023-04-25T06:12:31;100670.06;;;7.34;100.00
15272;BME280;7737;51.578;7.268;2023-04-25T06:14:59;100684.09;;;7.36;100.00
15272;BME280;7737;51.578;7.268;2023-04-25T06:17:26;100677.28;;;7.54;100.00
15272;BME280;7737;51.578;7.268;2023-04-25T06:19:52;100669.63;;;7.46;100.00
15272;BME280;7737;51.578;7.268;2023-04-25T06:22:19;100674.34;;;7.61;100.00
15272;BME280;7737;51.578;7.268;2023-04-25T06:24:45;100666.28;;;7.64;100.00
15272;BME280;7737;51.578;7.268;2023-04-25T06:27:12;100680.56;;;7.82;100.00
15272;BME280;7737;51.578;7.268;2023-04-25T06:29:39;100674.00;;;7.92;100.00
15272;BME280;7737;51.578;7.268;2023-04-25T06:32:07;100675.00;;;7.66;100.00
15272;BME280;7737;51.578;7.268;2023-04-25T06:34:33;100680.34;;;7.88;100.00
15272;BME280;7737;51.578;7.268;2023-04-25T06:37:00;100671.00;;;7.56;100.00
15272;BME280;7737;51.578;7.268;2023-04-25T06:39:26;100667.03;;;7.89;100.00
15272;BME280;7737;51.578;7.268;2023-04-25T06:41:53;100677.38;;;7.95;100.00
15272;BME280;7737;51.578;7.268;2023-04-25T06:44:19;100669.97;;;8.27;100.00
15272;BME280;7737;51.578;7.268;2023-04-25T06:46:48;100667.00;;;8.13;100.00
15272;BME280;7737;51.578;7.268;2023-04-25T06:49:16;100677.59;;;8.13;100.00
15272;BME280;7737;51.578;7.268;2023-04-25T06:51:42;100675.75;;;8.15;100.00
15272;BME280;7737;51.578;7.268;2023-04-25T06:54:09;100683.59;;;7.73;100.00
15272;BME280;7737;51.578;7.268;2023-04-25T06:56:36;100686.16;;;7.74;100.00
15272;BME280;7737;51.578;7.268;2023-04-25T06:59:02;100681.75;;;8.18;100.00
15272;BME280;7737;51.578;7.268;2023-04-25T07:01:29;100685.22;;;8.20;100.00
15272;BME280;7737;51.578;7.268;2023-04-25T07:03:56;100680.19;;;8.14;100.00
15272;BME280;7737;51.578;7.268;2023-04-25T07:06:24;100688.03;;;8.16;100.00
15272;BME280;7737;51.578;7.268;2023-04-25T07:08:52;100677.81;;;8.50;100.00
15272;BME280;7737;51.578;7.268;2023-04-25T07:11:18;100680.75;;;8.44;100.00
15272;BME280;7737;51.578;7.268;2023-04-25T07:13:45;100686.56;;;8.09;100.00
15272;BME280;7737;51.578;7.268;2023-04-25T07:16:11;100687.03;;;8.41;100.00
15272;BME280;7737;51.578;7.268;2023-04-25T07:18:38;100685.31;;;8.61;100.00
15272;BME280;7737;51.578;7.268;2023-04-25T07:21:04;100677.69;;;8.53;100.00
15272;BME280;7737;51.578;7.268;2023-04-25T07:23:32;100679.72;;;8.68;100.00
15272;BME280;7737;51.578;7.268;2023-04-25T07:25:59;100677.81;;;8.50;100.00
15272;BME280;7737;51.578;7.268;2023-04-25T07:28:26;100685.75;;;8.30;100.00
15272;BME280;7737;51.578;7.268;2023-04-25T07:30:52;100680.34;;;8.53;100.00
15272;BME280;7737;51.578;7.268;2023-04-25T07:33:19;100694.00;;;8.44;100.00
15272;BME280;7737;51.578;7.268;2023-04-25T07:35:46;100686.84;;;8.66;100.00
15272;BME280;7737;51.578;7.268;2023-04-25T07:38:13;100702.84;;;8.43;100.00
15272;BME280;7737;51.578;7.268;2023-04-25T07:40:41;100692.53;;;8.79;100.00
15272;BME280;7737;51.578;7.268;2023-04-25T07:43:07;100690.69;;;8.39;100.00
15272;BME280;7737;51.578;7.268;2023-04-25T07:45:34;100692.97;;;8.25;100.00
15272;BME280;7737;51.578;7.268;2023-04-25T07:48:00;100693.22;;;8.82;100.00
15272;BME280;7737;51.578;7.268;2023-04-25T07:50:28;100701.97;;;8.64;100.00
15272;BME280;7737;51.578;7.268;2023-04-25T07:52:54;100697.75;;;8.80;100.00
15272;BME280;7737;51.578;7.268;2023-04-25T07:55:21;100696.75;;;8.83;100.00
15272;BME280;7737;51.578;7.268;2023-04-25T07:57:49;100688.72;;;8.64;100.00
15272;BME280;7737;51.578;7.268;2023-04-25T08:00:16;100690.06;;;9.14;100.00
15272;BME280;7737;51.578;7.268;2023-04-25T08:02:42;100695.09;;;9.21;100.00
15272;BME280;7737;51.578;7.268;2023-04-25T08:05:09;100702.56;;;9.31;100.00
15272;BME280;7737;51.578;7.268;2023-04-25T08:07:39;100695.25;;;8.97;100.00
15272;BME280;7737;51.578;7.268;2023-04-25T08:10:07;100703.16;;;9.38;100.00
15272;BME280;7737;51.578;7.268;2023-04-25T08:12:34;100692.72;;;9.72;100.00
15272;BME280;7737;51.578;7.268;2023-04-25T08:15:04;100697.31;;;9.50;100.00
15272;BME280;7737;51.578;7.268;2023-04-25T08:17:31;100690.19;;;9.88;100.00
15272;BME280;7737;51.578;7.268;2023-04-25T08:19:58;100695.09;;;9.97;100.00
15272;BME280;7737;51.578;7.268;2023-04-25T08:22:24;100687.84;;;9.63;100.00
15272;BME280;7737;51.578;7.268;2023-04-25T08:24:51;100687.63;;;9.49;100.00
15272;BME280;7737;51.578;7.268;2023-04-25T08:27:17;100690.44;;;9.83;100.00
15272;BME280;7737;51.578;7.268;2023-04-25T08:29:46;100694.59;;;9.70;100.00
15272;BME280;7737;51.578;7.268;2023-04-25T08:32:13;100692.09;;;9.28;100.00
15272;BME280;7737;51.578;7.268;2023-04-25T08:34:40;100696.84;;;9.79;100.00
15272;BME280;7737;51.578;7.268;2023-04-25T08:37:08;100688.19;;;9.37;100.00
15272;BME280;7737;51.578;7.268;2023-04-25T08:39:35;100684.91;;;9.50;100.00
15272;BME280;7737;51.578;7.268;2023-04-25T08:42:02;100682.72;;;9.21;100.00
15272;BME280;7737;51.578;7.268;2023-04-25T08:44:33;100683.75;;;9.93;100.00
15272;BME280;7737;51.578;7.268;2023-04-25T08:47:00;100680.91;;;9.98;100.00
15272;BME280;7737;51.578;7.268;2023-04-25T08:49:29;100680.91;;;9.98;100.00
15272;BME280;7737;51.578;7.268;2023-04-25T08:51:59;100681.97;;;9.75;100.00
15272;BME280;7737;51.578;7.268;2023-04-25T08:54:27;100680.91;;;10.16;100.00
15272;BME280;7737;51.578;7.268;2023-04-25T08:56:56;100678.50;;;10.10;100.00
15272;BME280;7737;51.578;7.268;2023-04-25T08:59:24;100673.44;;;10.06;100.00
15272;BME280;7737;51.578;7.268;2023-04-25T09:01:50;100668.94;;;10.25;100.00
15272;BME280;7737;51.578;7.268;2023-04-25T09:04:17;100674.38;;;10.40;100.00
15272;BME280;7737;51.578;7.268;2023-04-25T09:06:45;100663.53;;;9.72;100.00
15272;BME280;7737;51.578;7.268;2023-04-25T09:09:12;100661.06;;;10.05;100.00
15272;BME280;7737;51.578;7.268;2023-04-25T09:11:39;100676.59;;;10.50;100.00
15272;BME280;7737;51.578;7.268;2023-04-25T09:14:13;100671.06;;;10.00;100.00
15272;BME280;7737;51.578;7.268;2023-04-25T09:17:00;100693.72;;;10.25;100.00
15272;BME280;7737;51.578;7.268;2023-04-25T09:19:28;100696.28;;;10.63;100.00
15272;BME280;7737;51.578;7.268;2023-04-25T09:21:57;100700.91;;;9.67;100.00
15272;BME280;7737;51.578;7.268;2023-04-25T09:24:31;100722.94;;;10.25;100.00
15272;BME280;7737;51.578;7.268;2023-04-25T09:26:58;100724.97;;;10.20;100.00
15272;BME280;7737;51.578;7.268;2023-04-25T09:29:31;100713.09;;;9.33;100.00
15272;BME280;7737;51.578;7.268;2023-04-25T09:32:12;100713.53;;;9.81;100.00
15272;BME280;7737;51.578;7.268;2023-04-25T09:34:39;100723.53;;;10.85;100.00
15272;BME280;7737;51.578;7.268;2023-04-25T09:37:08;100690.75;;;10.67;100.00
15272;BME280;7737;51.578;7.268;2023-04-25T09:39:36;100661.22;;;10.56;100.00
15272;BME280;7737;51.578;7.268;2023-04-25T09:42:03;100668.06;;;11.12;100.00
15272;BME280;7737;51.578;7.268;2023-04-25T09:44:29;100642.94;;;11.00;100.00
15272;BME280;7737;51.578;7.268;2023-04-25T09:46:56;100604.97;;;10.81;100.00
15272;BME280;7737;51.578;7.268;2023-04-25T09:49:25;100629.91;;;11.28;100.00
15272;BME280;7737;51.578;7.268;2023-04-25T09:51:55;100635.59;;;11.05;100.00
15272;BME280;7737;51.578;7.268;2023-04-25T09:54:24;100636.22;;;11.58;100.00
15272;BME280;7737;51.578;7.268;2023-04-25T09:56:52;100628.38;;;11.73;100.00
15272;BME280;7737;51.578;7.268;2023-04-25T09:59:20;100641.50;;;12.23;100.00
15272;BME280;7737;51.578;7.268;2023-04-25T10:01:48;100625.59;;;12.05;100.00
15272;BME280;7737;51.578;7.268;2023-04-25T10:04:19;100587.09;;;11.64;97.85
15272;BME280;7737;51.578;7.268;2023-04-25T10:06:48;100601.31;;;12.41;98.95
15272;BME280;7737;51.578;7.268;2023-04-25T10:09:16;100580.75;;;11.35;94.16
15272;BME280;7737;51.578;7.268;2023-04-25T10:11:46;100605.88;;;11.94;96.30
15272;BME280;7737;51.578;7.268;2023-04-25T10:14:13;100575.84;;;11.59;93.30
15272;BME280;7737;51.578;7.268;2023-04-25T10:16:41;100579.19;;;12.09;93.25
15272;BME280;7737;51.578;7.268;2023-04-25T10:19:08;100571.66;;;12.02;90.69
15272;BME280;7737;51.578;7.268;2023-04-25T10:21:36;100555.47;;;11.27;87.39
15272;BME280;7737;51.578;7.268;2023-04-25T10:24:07;100605.66;;;11.97;92.95
15272;BME280;7737;51.578;7.268;2023-04-25T10:26:34;100584.16;;;11.37;89.06
15272;BME280;7737;51.578;7.268;2023-04-25T10:29:03;100596.09;;;11.30;89.55
15272;BME280;7737;51.578;7.268;2023-04-25T10:31:30;100602.19;;;11.32;90.40
15272;BME280;7737;51.578;7.268;2023-04-25T10:33:57;100601.06;;;10.88;88.43
15272;BME280;7737;51.578;7.268;2023-04-25T10:36:24;100629.41;;;11.05;90.54
15272;BME280;7737;51.578;7.268;2023-04-25T10:38:52;100645.16;;;10.58;90.61
15272;BME280;7737;51.578;7.268;2023-04-25T10:41:20;100676.63;;;10.67;93.79
15272;BME280;7737;51.578;7.268;2023-04-25T10:43:49;100675.91;;;9.90;91.64
15272;BME280;7737;51.578;7.268;2023-04-25T10:46:22;100719.25;;;10.47;96.60
15272;BME280;7737;51.578;7.268;2023-04-25T10:48:50;100749.53;;;10.25;98.89
15272;BME280;7737;51.578;7.268;2023-04-25T10:51:19;100775.59;;;10.17;100.00
15272;BME280;7737;51.578;7.268;2023-04-25T10:53:46;100769.03;;;10.06;100.00
15272;BME280;7737;51.578;7.268;2023-04-25T10:56:17;100765.47;;;9.48;100.00
15272;BME280;7737;51.578;7.268;2023-04-25T10:58:44;100783.38;;;10.02;100.00
15272;BME280;7737;51.578;7.268;2023-04-25T11:01:12;100795.97;;;10.17;100.00
15272;BME280;7737;51.578;7.268;2023-04-25T11:03:42;100790.16;;;10.27;100.00
15272;BME280;7737;51.578;7.268;2023-04-25T11:06:15;100786.81;;;10.04;100.00
15272;BME280;7737;51.578;7.268;2023-04-25T11:08:48;100809.22;;;10.73;100.00
15272;BME280;7737;51.578;7.268;2023-04-25T11:11:15;100805.59;;;10.92;100.00
15272;BME280;7737;51.578;7.268;2023-04-25T11:13:42;100799.91;;;10.64;100.00
15272;BME280;7737;51.578;7.268;2023-04-25T11:16:09;100798.53;;;10.74;100.00
15272;BME280;7737;51.578;7.268;2023-04-25T11:18:35;100796.06;;;11.06;100.00
15272;BME280;7737;51.578;7.268;2023-04-25T11:21:05;100791.53;;;11.08;100.00
15272;BME280;7737;51.578;7.268;2023-04-25T11:23:32;100781.88;;;11.56;100.00
15272;BME280;7737;51.578;7.268;2023-04-25T11:25:58;100781.44;;;11.31;100.00
15272;BME280;7737;51.578;7.268;2023-04-25T11:28:26;100760.13;;;11.31;100.00
15272;BME280;7737;51.578;7.268;2023-04-25T11:30:53;100752.31;;;11.45;100.00
15272;BME280;7737;51.578;7.268;2023-04-25T11:33:23;100720.06;;;10.66;96.48
15272;BME280;7737;51.578;7.268;2023-04-25T11:35:49;100731.75;;;11.65;100.00
15272;BME280;7737;51.578;7.268;2023-04-25T11:38:17;100720.69;;;11.39;99.51
15272;BME280;7737;51.578;7.268;2023-04-25T11:40:44;100723.94;;;12.26;99.63
15272;BME280;7737;51.578;7.268;2023-04-25T11:43:15;100708.28;;;12.35;98.27
15272;BME280;7737;51.578;7.268;2023-04-25T11:45:46;100688.94;;;12.32;94.29
15272;BME280;7737;51.578;7.268;2023-04-25T11:48:12;100703.72;;;12.37;95.01
15272;BME280;7737;51.578;7.268;2023-04-25T11:50:39;100681.63;;;12.35;91.45
15272;BME280;7737;51.578;7.268;2023-04-25T11:53:05;100640.22;;;12.73;87.06
15272;BME280;7737;51.578;7.268;2023-04-25T11:55:34;100652.69;;;13.03;87.89
15272;BME280;7737;51.578;7.268;2023-04-25T11:58:03;100589.00;;;12.09;80.33
15272;BME280;7737;51.578;7.268;2023-04-25T12:00:30;100624.53;;;13.27;85.66
15272;BME280;7737;51.578;7.268;2023-04-25T12:02:57;100600.50;;;13.27;82.17
15272;BME280;7737;51.578;7.268;2023-04-25T12:05:28;100610.94;;;13.72;81.66
15272;BME280;7737;51.578;7.268;2023-04-25T12:07:55;100585.03;;;13.60;79.62
15272;BME280;7737;51.578;7.268;2023-04-25T12:10:24;100592.47;;;14.23;79.71
15272;BME280;7737;51.578;7.268;2023-04-25T12:12:52;100555.34;;;13.91;75.36
15272;BME280;7737;51.578;7.268;2023-04-25T12:15:23;100578.69;;;14.29;77.15
15272;BME280;7737;51.578;7.268;2023-04-25T12:17:52;100550.19;;;13.21;74.05
15272;BME280;7737;51.578;7.268;2023-04-25T12:20:20;100575.31;;;13.86;75.89
15272;BME280;7737;51.578;7.268;2023-04-25T12:22:49;100586.56;;;13.50;76.15
15272;BME280;7737;51.578;7.268;2023-04-25T12:25:35;100598.38;;;11.85;74.94
15272;BME280;7737;51.578;7.268;2023-04-25T12:28:11;100615.50;;;12.26;76.88
15272;BME280;7737;51.578;7.268;2023-04-25T12:30:53;100591.88;;;11.75;72.74
15272;BME280;7737;51.578;7.268;2023-04-25T12:33:20;100580.66;;;11.84;72.47
15272;BME280;7737;51.578;7.268;2023-04-25T12:35:48;100599.50;;;11.96;73.59
15272;BME280;7737;51.578;7.268;2023-04-25T12:38:20;100622.25;;;12.47;76.12
15272;BME280;7737;51.578;7.268;2023-04-25T12:40:47;100596.22;;;12.07;73.82
15272;BME280;7737;51.578;7.268;2023-04-25T12:43:15;100604.03;;;11.15;72.57
15272;BME280;7737;51.578;7.268;2023-04-25T12:45:41;100625.16;;;11.18;73.73
15272;BME280;7737;51.578;7.268;2023-04-25T12:48:08;100648.47;;;12.25;77.48
15272;BME280;7737;51.578;7.268;2023-04-25T12:50:35;100636.28;;;11.90;76.53
15272;BME280;7737;51.578;7.268;2023-04-25T12:53:01;100613.56;;;11.51;73.01
15272;BME280;7737;51.578;7.268;2023-04-25T12:55:28;100619.44;;;11.74;73.23
15272;BME280;7737;51.578;7.268;2023-04-25T12:57:54;100622.75;;;12.24;74.34
15272;BME280;7737;51.578;7.268;2023-04-25T13:00:22;100604.63;;;11.84;72.72
15272;BME280;7737;51.578;7.268;2023-04-25T13:02:49;100592.63;;;11.28;70.71